sensor_id;sensor_type;location;lat;lon;timestamp;temperature;humidity
12152;DHT22;6139;51.274;7.128;2022-09-02T00:00:30;17.30;99.90
12152;DHT22;6139;51.274;7.128;2022-09-02T00:01:33;17.20;99.90
12152;DHT22;6139;51.274;7.128;2022-09-02T00:02:37;17.20;99.90
12152;DHT22;6139;51.274;7.128;2022-09-02T00:03:39;17.20;99.90
12152;DHT22;6139;51.274;7.128;2022-09-02T00:04:42;17.20;99.90
12152;DHT22;6139;51.274;7.128;2022-09-02T00:05:45;17.20;1.00
12152;DHT22;6139;51.274;7.128;2022-09-02T00:06:49;17.20;1.00
12152;DHT22;6139;51.274;7.128;2022-09-02T00:07:51;17.20;1.00
12152;DHT22;6139;51.274;7.128;2022-09-02T00:08:54;17.20;99.90
12152;DHT22;6139;51.274;7.128;2022-09-02T00:09:56;17.20;99.90
12152;DHT22;6139;51.274;7.128;2022-09-02T00:11:00;17.20;1.00
12152;DHT22;6139;51.274;7.128;2022-09-02T00:12:04;17.20;1.00
12152;DHT22;6139;51.274;7.128;2022-09-02T00:13:08;17.20;1.00
12152;DHT22;6139;51.274;7.128;2022-09-02T00:14:11;17.20;99.90
12152;DHT22;6139;51.274;7.128;2022-09-02T00:15:14;17.20;1.00
12152;DHT22;6139;51.274;7.128;2022-09-02T00:16:15;17.20;1.00
12152;DHT22;6139;51.274;7.128;2022-09-02T00:17:18;17.20;1.00
12152;DHT22;6139;51.274;7.128;2022-09-02T00:18:19;17.20;1.00
12152;DHT22;6139;51.274;7.128;2022-09-02T00:19:23;17.20;1.00
12152;DHT22;6139;51.274;7.128;2022-09-02T00:20:26;17.20;1.00
12152;DHT22;6139;51.274;7.128;2022-09-02T00:21:30;17.20;1.00
12152;DHT22;6139;51.274;7.128;2022-09-02T00:22:33;17.20;1.00
12152;DHT22;6139;51.274;7.128;2022-09-02T00:23:36;17.20;1.00
12152;DHT22;6139;51.274;7.128;2022-09-02T00:24:38;17.10;1.00
12152;DHT22;6139;51.274;7.128;2022-09-02T00:25:40;17.10;1.00
12152;DHT22;6139;51.274;7.128;2022-09-02T00:26:42;17.10;1.00
12152;DHT22;6139;51.274;7.128;2022-09-02T00:27:43;17.10;1.00
12152;DHT22;6139;51.274;7.128;2022-09-02T00:28:46;17.10;1.00
12152;DHT22;6139;51.274;7.128;2022-09-02T00:29:47;17.10;1.00
12152;DHT22;6139;51.274;7.128;2022-09-02T00:30:49;17.10;1.00
12152;DHT22;6139;51.274;7.128;2022-09-02T00:31:50;17.10;1.00
12152;DHT22;6139;51.274;7.128;2022-09-02T00:32:53;17.10;1.00
12152;DHT22;6139;51.274;7.128;2022-09-02T00:33:54;17.10;1.00
12152;DHT22;6139;51.274;7.128;2022-09-02T00:34:56;17.10;1.00
12152;DHT22;6139;51.274;7.128;2022-09-02T00:35:58;17.10;1.00
12152;DHT22;6139;51.274;7.128;2022-09-02T00:37:02;17.10;1.00
12152;DHT22;6139;51.274;7.128;2022-09-02T00:38:04;17.10;1.00
12152;DHT22;6139;51.274;7.128;2022-09-02T00:39:07;17.10;1.00
12152;DHT22;6139;51.274;7.128;2022-09-02T00:40:09;17.00;1.00
12152;DHT22;6139;51.274;7.128;2022-09-02T00:41:14;17.00;1.00
12152;DHT22;6139;51.274;7.128;2022-09-02T00:42:15;17.00;1.00
12152;DHT22;6139;51.274;7.128;2022-09-02T00:43:25;17.00;1.00
12152;DHT22;6139;51.274;7.128;2022-09-02T00:44:37;17.00;1.00
12152;DHT22;6139;51.274;7.128;2022-09-02T00:45:39;17.00;1.00
12152;DHT22;6139;51.274;7.128;2022-09-02T00:46:41;17.00;1.00
12152;DHT22;6139;51.274;7.128;2022-09-02T00:47:43;17.00;1.00
12152;DHT22;6139;51.274;7.128;2022-09-02T00:48:48;17.00;1.00
12152;DHT22;6139;51.274;7.128;2022-09-02T00:49:54;17.00;1.00
12152;DHT22;6139;51.274;7.128;2022-09-02T00:50:55;17.00;1.00
12152;DHT22;6139;51.274;7.128;2022-09-02T00:52:00;17.10;1.00
12152;DHT22;6139;51.274;7.128;2022-09-02T00:53:06;17.00;1.00
12152;DHT22;6139;51.274;7.128;2022-09-02T00:54:10;17.00;1.00
12152;DHT22;6139;51.274;7.128;2022-09-02T00:55:16;17.00;1.00
12152;DHT22;6139;51.274;7.128;2022-09-02T00:56:26;17.00;1.00
12152;DHT22;6139;51.274;7.128;2022-09-02T00:57:32;17.00;1.00
12152;DHT22;6139;51.274;7.128;2022-09-02T00:58:36;17.00;1.00
12152;DHT22;6139;51.274;7.128;2022-09-02T00:59:42;17.00;1.00
12152;DHT22;6139;51.274;7.128;2022-09-02T01:00:48;17.00;1.00
12152;DHT22;6139;51.274;7.128;2022-09-02T01:01:52;17.00;1.00
12152;DHT22;6139;51.274;7.128;2022-09-02T01:02:57;16.90;1.00
12152;DHT22;6139;51.274;7.128;2022-09-02T01:03:59;16.90;1.00
12152;DHT22;6139;51.274;7.128;2022-09-02T01:05:03;16.90;1.00
12152;DHT22;6139;51.274;7.128;2022-09-02T01:06:05;16.90;1.00
12152;DHT22;6139;51.274;7.128;2022-09-02T01:07:08;16.90;1.00
12152;DHT22;6139;51.274;7.128;2022-09-02T01:08:11;16.90;1.00
12152;DHT22;6139;51.274;7.128;2022-09-02T01:09:16;16.90;1.00
12152;DHT22;6139;51.274;7.128;2022-09-02T01:10:19;16.90;1.00
12152;DHT22;6139;51.274;7.128;2022-09-02T01:11:23;16.90;1.00
12152;DHT22;6139;51.274;7.128;2022-09-02T01:12:28;16.90;1.00
12152;DHT22;6139;51.274;7.128;2022-09-02T01:13:36;16.90;1.00
12152;DHT22;6139;51.274;7.128;2022-09-02T01:14:37;16.90;1.00
12152;DHT22;6139;51.274;7.128;2022-09-02T01:15:42;16.90;1.00
12152;DHT22;6139;51.274;7.128;2022-09-02T01:16:47;16.90;1.00
12152;DHT22;6139;51.274;7.128;2022-09-02T01:17:50;16.90;1.00
12152;DHT22;6139;51.274;7.128;2022-09-02T01:18:55;16.90;1.00
12152;DHT22;6139;51.274;7.128;2022-09-02T01:20:03;16.90;1.00
12152;DHT22;6139;51.274;7.128;2022-09-02T01:21:05;16.90;1.00
12152;DHT22;6139;51.274;7.128;2022-09-02T01:22:16;16.90;1.00
12152;DHT22;6139;51.274;7.128;2022-09-02T01:23:18;16.80;1.00
12152;DHT22;6139;51.274;7.128;2022-09-02T01:24:22;16.80;99.90
12152;DHT22;6139;51.274;7.128;2022-09-02T01:25:27;16.80;1.00
12152;DHT22;6139;51.274;7.128;2022-09-02T01:26:31;16.80;99.90
12152;DHT22;6139;51.274;7.128;2022-09-02T01:27:32;16.80;99.90
12152;DHT22;6139;51.274;7.128;2022-09-02T01:28:34;16.80;99.90
12152;DHT22;6139;51.274;7.128;2022-09-02T01:29:35;16.80;99.90
12152;DHT22;6139;51.274;7.128;2022-09-02T01:30:39;16.80;99.90
12152;DHT22;6139;51.274;7.128;2022-09-02T01:31:41;16.80;99.90
12152;DHT22;6139;51.274;7.128;2022-09-02T01:32:44;16.80;99.90
12152;DHT22;6139;51.274;7.128;2022-09-02T01:33:45;16.80;99.90
12152;DHT22;6139;51.274;7.128;2022-09-02T01:34:47;16.90;99.90
12152;DHT22;6139;51.274;7.128;2022-09-02T01:35:49;16.90;99.90
12152;DHT22;6139;51.274;7.128;2022-09-02T01:36:52;16.90;99.90
12152;DHT22;6139;51.274;7.128;2022-09-02T01:37:56;16.90;99.90
12152;DHT22;6139;51.274;7.128;2022-09-02T01:38:59;16.90;99.90
12152;DHT22;6139;51.274;7.128;2022-09-02T01:40:00;16.90;99.90
12152;DHT22;6139;51.274;7.128;2022-09-02T01:41:02;16.90;99.90
12152;DHT22;6139;51.274;7.128;2022-09-02T01:42:04;16.90;99.90
12152;DHT22;6139;51.274;7.128;2022-09-02T01:43:08;16.90;99.90
12152;DHT22;6139;51.274;7.128;2022-09-02T01:44:10;16.90;99.90
12152;DHT22;6139;51.274;7.128;2022-09-02T01:45:16;16.90;99.90
12152;DHT22;6139;51.274;7.128;2022-09-02T01:46:17;16.90;99.90
12152;DHT22;6139;51.274;7.128;2022-09-02T01:47:24;16.90;99.90
12152;DHT22;6139;51.274;7.128;2022-09-02T01:48:26;16.90;99.90
12152;DHT22;6139;51.274;7.128;2022-09-02T01:49:28;17.00;99.90
12152;DHT22;6139;51.274;7.128;2022-09-02T01:50:30;17.00;99.90
12152;DHT22;6139;51.274;7.128;2022-09-02T01:51:33;17.00;99.90
12152;DHT22;6139;51.274;7.128;2022-09-02T01:52:35;17.00;99.90
12152;DHT22;6139;51.274;7.128;2022-09-02T01:53:39;17.00;99.90
12152;DHT22;6139;51.274;7.128;2022-09-02T01:54:41;17.00;99.90
12152;DHT22;6139;51.274;7.128;2022-09-02T01:55:44;17.00;99.90
12152;DHT22;6139;51.274;7.128;2022-09-02T01:56:45;17.00;99.90
12152;DHT22;6139;51.274;7.128;2022-09-02T01:57:48;17.00;99.90
12152;DHT22;6139;51.274;7.128;2022-09-02T01:58:49;17.00;99.90
12152;DHT22;6139;51.274;7.128;2022-09-02T01:59:52;17.00;99.90
12152;DHT22;6139;51.274;7.128;2022-09-02T02:00:53;17.00;1.00
12152;DHT22;6139;51.274;7.128;2022-09-02T02:01:57;17.00;1.00
12152;DHT22;6139;51.274;7.128;2022-09-02T02:02:58;17.00;1.00
12152;DHT22;6139;51.274;7.128;2022-09-02T02:04:00;17.00;99.90
12152;DHT22;6139;51.274;7.128;2022-09-02T02:05:01;17.00;99.90
12152;DHT22;6139;51.274;7.128;2022-09-02T02:06:08;17.00;1.00
12152;DHT22;6139;51.274;7.128;2022-09-02T02:07:11;17.00;99.90
12152;DHT22;6139;51.274;7.128;2022-09-02T02:08:14;17.00;99.90
12152;DHT22;6139;51.274;7.128;2022-09-02T02:09:17;17.00;1.00
12152;DHT22;6139;51.274;7.128;2022-09-02T02:10:20;17.00;1.00
12152;DHT22;6139;51.274;7.128;2022-09-02T02:11:24;17.00;1.00
12152;DHT22;6139;51.274;7.128;2022-09-02T02:12:31;17.10;1.00
12152;DHT22;6139;51.274;7.128;2022-09-02T02:13:33;17.10;1.00
12152;DHT22;6139;51.274;7.128;2022-09-02T02:14:36;17.10;99.90
12152;DHT22;6139;51.274;7.128;2022-09-02T02:15:40;17.10;1.00
12152;DHT22;6139;51.274;7.128;2022-09-02T02:16:41;17.10;1.00
12152;DHT22;6139;51.274;7.128;2022-09-02T02:17:44;17.10;1.00
12152;DHT22;6139;51.274;7.128;2022-09-02T02:18:46;17.10;1.00
12152;DHT22;6139;51.274;7.128;2022-09-02T02:19:48;17.00;1.00
12152;DHT22;6139;51.274;7.128;2022-09-02T02:20:49;17.00;1.00
12152;DHT22;6139;51.274;7.128;2022-09-02T02:21:52;17.00;1.00
12152;DHT22;6139;51.274;7.128;2022-09-02T02:22:53;17.00;1.00
12152;DHT22;6139;51.274;7.128;2022-09-02T02:23:55;17.00;1.00
12152;DHT22;6139;51.274;7.128;2022-09-02T02:24:58;17.00;1.00
12152;DHT22;6139;51.274;7.128;2022-09-02T02:26:00;17.00;1.00
12152;DHT22;6139;51.274;7.128;2022-09-02T02:27:01;17.10;1.00
12152;DHT22;6139;51.274;7.128;2022-09-02T02:28:04;17.10;1.00
12152;DHT22;6139;51.274;7.128;2022-09-02T02:29:05;17.10;1.00
12152;DHT22;6139;51.274;7.128;2022-09-02T02:30:10;17.10;1.00
12152;DHT22;6139;51.274;7.128;2022-09-02T02:31:12;17.10;1.00
12152;DHT22;6139;51.274;7.128;2022-09-02T02:32:14;17.10;1.00
12152;DHT22;6139;51.274;7.128;2022-09-02T02:33:19;17.10;1.00
12152;DHT22;6139;51.274;7.128;2022-09-02T02:34:21;17.10;1.00
12152;DHT22;6139;51.274;7.128;2022-09-02T02:35:22;17.10;1.00
12152;DHT22;6139;51.274;7.128;2022-09-02T02:36:24;17.10;1.00
12152;DHT22;6139;51.274;7.128;2022-09-02T02:37:26;17.10;1.00
12152;DHT22;6139;51.274;7.128;2022-09-02T02:38:28;17.10;1.00
12152;DHT22;6139;51.274;7.128;2022-09-02T02:39:29;17.20;1.00
12152;DHT22;6139;51.274;7.128;2022-09-02T02:40:33;17.20;1.00
12152;DHT22;6139;51.274;7.128;2022-09-02T02:41:35;17.20;1.00
12152;DHT22;6139;51.274;7.128;2022-09-02T02:42:38;17.20;1.00
12152;DHT22;6139;51.274;7.128;2022-09-02T02:43:40;17.20;1.00
12152;DHT22;6139;51.274;7.128;2022-09-02T02:44:42;17.20;1.00
12152;DHT22;6139;51.274;7.128;2022-09-02T02:45:43;17.20;1.00
12152;DHT22;6139;51.274;7.128;2022-09-02T02:46:46;17.20;1.00
12152;DHT22;6139;51.274;7.128;2022-09-02T02:47:47;17.20;1.00
12152;DHT22;6139;51.274;7.128;2022-09-02T02:48:51;17.20;1.00
12152;DHT22;6139;51.274;7.128;2022-09-02T02:49:53;17.20;1.00
12152;DHT22;6139;51.274;7.128;2022-09-02T02:50:55;17.20;1.00
12152;DHT22;6139;51.274;7.128;2022-09-02T02:51:56;17.20;1.00
12152;DHT22;6139;51.274;7.128;2022-09-02T02:52:58;17.10;1.00
12152;DHT22;6139;51.274;7.128;2022-09-02T02:54:04;17.20;1.00
12152;DHT22;6139;51.274;7.128;2022-09-02T02:55:08;17.20;1.00
12152;DHT22;6139;51.274;7.128;2022-09-02T02:56:11;17.30;1.00
12152;DHT22;6139;51.274;7.128;2022-09-02T02:57:14;17.30;1.00
12152;DHT22;6139;51.274;7.128;2022-09-02T02:58:15;17.30;1.00
12152;DHT22;6139;51.274;7.128;2022-09-02T02:59:17;17.20;1.00
12152;DHT22;6139;51.274;7.128;2022-09-02T03:00:24;17.30;1.00
12152;DHT22;6139;51.274;7.128;2022-09-02T03:01:27;17.30;1.00
12152;DHT22;6139;51.274;7.128;2022-09-02T03:02:28;17.30;1.00
12152;DHT22;6139;51.274;7.128;2022-09-02T03:03:34;17.30;1.00
12152;DHT22;6139;51.274;7.128;2022-09-02T03:04:36;17.30;1.00
12152;DHT22;6139;51.274;7.128;2022-09-02T03:05:39;17.20;1.00
12152;DHT22;6139;51.274;7.128;2022-09-02T03:06:41;17.20;1.00
12152;DHT22;6139;51.274;7.128;2022-09-02T03:07:44;17.30;1.00
12152;DHT22;6139;51.274;7.128;2022-09-02T03:08:45;17.20;1.00
12152;DHT22;6139;51.274;7.128;2022-09-02T03:09:49;17.30;1.00
12152;DHT22;6139;51.274;7.128;2022-09-02T03:10:51;17.20;1.00
12152;DHT22;6139;51.274;7.128;2022-09-02T03:11:56;17.20;1.00
12152;DHT22;6139;51.274;7.128;2022-09-02T03:12:58;17.20;1.00
12152;DHT22;6139;51.274;7.128;2022-09-02T03:14:01;17.20;1.00
12152;DHT22;6139;51.274;7.128;2022-09-02T03:15:03;17.20;1.00
12152;DHT22;6139;51.274;7.128;2022-09-02T03:16:05;17.20;1.00
12152;DHT22;6139;51.274;7.128;2022-09-02T03:17:07;17.20;1.00
12152;DHT22;6139;51.274;7.128;2022-09-02T03:18:09;17.20;1.00
12152;DHT22;6139;51.274;7.128;2022-09-02T03:19:11;17.20;1.00
12152;DHT22;6139;51.274;7.128;2022-09-02T03:20:17;17.20;1.00
12152;DHT22;6139;51.274;7.128;2022-09-02T03:21:22;17.20;1.00
12152;DHT22;6139;51.274;7.128;2022-09-02T03:22:27;17.20;1.00
12152;DHT22;6139;51.274;7.128;2022-09-02T03:23:29;17.20;1.00
12152;DHT22;6139;51.274;7.128;2022-09-02T03:24:32;17.20;1.00
12152;DHT22;6139;51.274;7.128;2022-09-02T03:25:35;17.20;1.00
12152;DHT22;6139;51.274;7.128;2022-09-02T03:26:49;17.10;1.00
12152;DHT22;6139;51.274;7.128;2022-09-02T03:27:52;17.20;1.00
12152;DHT22;6139;51.274;7.128;2022-09-02T03:28:55;17.10;1.00
12152;DHT22;6139;51.274;7.128;2022-09-02T03:29:58;17.10;1.00
12152;DHT22;6139;51.274;7.128;2022-09-02T03:31:00;17.10;1.00
12152;DHT22;6139;51.274;7.128;2022-09-02T03:32:02;17.10;1.00
12152;DHT22;6139;51.274;7.128;2022-09-02T03:33:05;17.10;1.00
12152;DHT22;6139;51.274;7.128;2022-09-02T03:34:07;17.00;1.00
12152;DHT22;6139;51.274;7.128;2022-09-02T03:35:13;17.00;1.00
12152;DHT22;6139;51.274;7.128;2022-09-02T03:36:19;17.10;1.00
12152;DHT22;6139;51.274;7.128;2022-09-02T03:37:22;17.00;1.00
12152;DHT22;6139;51.274;7.128;2022-09-02T03:38:23;17.00;1.00
12152;DHT22;6139;51.274;7.128;2022-09-02T03:39:25;17.00;1.00
12152;DHT22;6139;51.274;7.128;2022-09-02T03:40:27;17.00;1.00
12152;DHT22;6139;51.274;7.128;2022-09-02T03:41:29;17.00;99.90
12152;DHT22;6139;51.274;7.128;2022-09-02T03:42:31;17.00;99.90
12152;DHT22;6139;51.274;7.128;2022-09-02T03:43:35;17.00;99.90
12152;DHT22;6139;51.274;7.128;2022-09-02T03:44:36;16.90;99.90
12152;DHT22;6139;51.274;7.128;2022-09-02T03:45:40;17.00;99.90
12152;DHT22;6139;51.274;7.128;2022-09-02T03:46:43;17.00;1.00
12152;DHT22;6139;51.274;7.128;2022-09-02T03:47:46;17.00;1.00
12152;DHT22;6139;51.274;7.128;2022-09-02T03:48:52;16.90;1.00
12152;DHT22;6139;51.274;7.128;2022-09-02T03:49:55;16.90;99.90
12152;DHT22;6139;51.274;7.128;2022-09-02T03:50:57;16.90;99.90
12152;DHT22;6139;51.274;7.128;2022-09-02T03:52:02;16.90;99.90
12152;DHT22;6139;51.274;7.128;2022-09-02T03:53:05;16.90;1.00
12152;DHT22;6139;51.274;7.128;2022-09-02T03:54:07;16.90;1.00
12152;DHT22;6139;51.274;7.128;2022-09-02T03:55:10;16.90;1.00
12152;DHT22;6139;51.274;7.128;2022-09-02T03:56:14;16.90;1.00
12152;DHT22;6139;51.274;7.128;2022-09-02T03:57:15;16.90;1.00
12152;DHT22;6139;51.274;7.128;2022-09-02T03:58:18;16.90;1.00
12152;DHT22;6139;51.274;7.128;2022-09-02T03:59:21;16.90;1.00
12152;DHT22;6139;51.274;7.128;2022-09-02T04:00:25;16.90;1.00
12152;DHT22;6139;51.274;7.128;2022-09-02T04:01:30;16.90;1.00
12152;DHT22;6139;51.274;7.128;2022-09-02T04:02:32;16.90;1.00
12152;DHT22;6139;51.274;7.128;2022-09-02T04:03:34;16.90;29.70
12152;DHT22;6139;51.274;7.128;2022-09-02T04:04:36;16.90;99.90
12152;DHT22;6139;51.274;7.128;2022-09-02T04:05:37;16.90;99.90
12152;DHT22;6139;51.274;7.128;2022-09-02T04:06:40;16.90;99.90
12152;DHT22;6139;51.274;7.128;2022-09-02T04:07:41;16.90;99.90
12152;DHT22;6139;51.274;7.128;2022-09-02T04:08:44;16.80;1.00
12152;DHT22;6139;51.274;7.128;2022-09-02T04:09:45;16.80;1.00
12152;DHT22;6139;51.274;7.128;2022-09-02T04:10:48;16.80;1.00
12152;DHT22;6139;51.274;7.128;2022-09-02T04:11:49;16.80;1.00
12152;DHT22;6139;51.274;7.128;2022-09-02T04:12:51;16.80;1.00
12152;DHT22;6139;51.274;7.128;2022-09-02T04:13:53;16.80;1.00
12152;DHT22;6139;51.274;7.128;2022-09-02T04:14:59;16.80;1.00
12152;DHT22;6139;51.274;7.128;2022-09-02T04:16:05;16.90;1.00
12152;DHT22;6139;51.274;7.128;2022-09-02T04:17:07;16.80;1.00
12152;DHT22;6139;51.274;7.128;2022-09-02T04:18:08;16.80;99.90
12152;DHT22;6139;51.274;7.128;2022-09-02T04:19:10;16.80;1.00
12152;DHT22;6139;51.274;7.128;2022-09-02T04:20:14;16.90;1.00
12152;DHT22;6139;51.274;7.128;2022-09-02T04:21:17;16.80;2.40
12152;DHT22;6139;51.274;7.128;2022-09-02T04:22:20;16.90;1.00
12152;DHT22;6139;51.274;7.128;2022-09-02T04:23:23;16.80;1.00
12152;DHT22;6139;51.274;7.128;2022-09-02T04:24:24;16.80;1.00
12152;DHT22;6139;51.274;7.128;2022-09-02T04:25:26;16.80;1.00
12152;DHT22;6139;51.274;7.128;2022-09-02T04:26:28;16.80;99.90
12152;DHT22;6139;51.274;7.128;2022-09-02T04:27:33;16.80;1.00
12152;DHT22;6139;51.274;7.128;2022-09-02T04:28:34;16.80;1.00
12152;DHT22;6139;51.274;7.128;2022-09-02T04:29:37;16.80;1.00
12152;DHT22;6139;51.274;7.128;2022-09-02T04:30:40;16.80;2.60
12152;DHT22;6139;51.274;7.128;2022-09-02T04:31:43;16.80;1.00
12152;DHT22;6139;51.274;7.128;2022-09-02T04:32:44;16.80;99.90
12152;DHT22;6139;51.274;7.128;2022-09-02T04:33:47;16.80;99.30
12152;DHT22;6139;51.274;7.128;2022-09-02T04:34:51;16.80;1.00
12152;DHT22;6139;51.274;7.128;2022-09-02T04:35:53;16.80;1.00
12152;DHT22;6139;51.274;7.128;2022-09-02T04:36:55;16.80;1.00
12152;DHT22;6139;51.274;7.128;2022-09-02T04:37:56;16.80;1.00
12152;DHT22;6139;51.274;7.128;2022-09-02T04:38:59;16.80;99.90
12152;DHT22;6139;51.274;7.128;2022-09-02T04:40:04;16.90;1.00
12152;DHT22;6139;51.274;7.128;2022-09-02T04:41:07;16.90;1.00
12152;DHT22;6139;51.274;7.128;2022-09-02T04:42:09;16.90;1.00
12152;DHT22;6139;51.274;7.128;2022-09-02T04:43:13;16.90;1.00
12152;DHT22;6139;51.274;7.128;2022-09-02T04:44:14;16.80;1.00
12152;DHT22;6139;51.274;7.128;2022-09-02T04:45:20;16.80;1.00
12152;DHT22;6139;51.274;7.128;2022-09-02T04:46:24;16.80;1.00
12152;DHT22;6139;51.274;7.128;2022-09-02T04:47:27;16.80;1.00
12152;DHT22;6139;51.274;7.128;2022-09-02T04:48:29;16.80;1.00
12152;DHT22;6139;51.274;7.128;2022-09-02T04:49:32;16.80;1.00
12152;DHT22;6139;51.274;7.128;2022-09-02T04:50:35;16.80;1.00
12152;DHT22;6139;51.274;7.128;2022-09-02T04:51:38;16.80;1.00
12152;DHT22;6139;51.274;7.128;2022-09-02T04:52:41;16.80;1.00
12152;DHT22;6139;51.274;7.128;2022-09-02T04:53:44;16.80;1.00
12152;DHT22;6139;51.274;7.128;2022-09-02T04:54:47;16.80;1.00
12152;DHT22;6139;51.274;7.128;2022-09-02T04:55:50;16.80;1.00
12152;DHT22;6139;51.274;7.128;2022-09-02T04:56:51;16.80;1.00
12152;DHT22;6139;51.274;7.128;2022-09-02T04:57:54;16.80;1.00
12152;DHT22;6139;51.274;7.128;2022-09-02T04:58:56;16.90;92.90
12152;DHT22;6139;51.274;7.128;2022-09-02T04:59:58;16.80;1.00
12152;DHT22;6139;51.274;7.128;2022-09-02T05:01:05;16.90;51.50
12152;DHT22;6139;51.274;7.128;2022-09-02T05:02:10;16.90;1.00
12152;DHT22;6139;51.274;7.128;2022-09-02T05:03:12;16.90;1.00
12152;DHT22;6139;51.274;7.128;2022-09-02T05:04:16;16.90;1.00
12152;DHT22;6139;51.274;7.128;2022-09-02T05:05:22;16.80;1.00
12152;DHT22;6139;51.274;7.128;2022-09-02T05:06:28;16.80;1.00
12152;DHT22;6139;51.274;7.128;2022-09-02T05:07:34;16.80;1.00
12152;DHT22;6139;51.274;7.128;2022-09-02T05:08:37;16.80;1.00
12152;DHT22;6139;51.274;7.128;2022-09-02T05:09:39;16.80;1.00
12152;DHT22;6139;51.274;7.128;2022-09-02T05:10:42;16.80;1.00
12152;DHT22;6139;51.274;7.128;2022-09-02T05:11:43;16.70;1.00
12152;DHT22;6139;51.274;7.128;2022-09-02T05:12:48;16.70;21.10
12152;DHT22;6139;51.274;7.128;2022-09-02T05:13:50;16.70;99.90
12152;DHT22;6139;51.274;7.128;2022-09-02T05:14:54;16.70;1.00
12152;DHT22;6139;51.274;7.128;2022-09-02T05:15:58;16.70;1.00
12152;DHT22;6139;51.274;7.128;2022-09-02T05:17:00;16.70;1.00
12152;DHT22;6139;51.274;7.128;2022-09-02T05:18:04;16.70;1.00
12152;DHT22;6139;51.274;7.128;2022-09-02T05:19:07;16.70;1.00
12152;DHT22;6139;51.274;7.128;2022-09-02T05:20:14;16.70;65.20
12152;DHT22;6139;51.274;7.128;2022-09-02T05:21:19;16.70;49.20
12152;DHT22;6139;51.274;7.128;2022-09-02T05:22:21;16.70;1.00
12152;DHT22;6139;51.274;7.128;2022-09-02T05:23:24;16.70;99.90
12152;DHT22;6139;51.274;7.128;2022-09-02T05:24:26;16.70;99.90
12152;DHT22;6139;51.274;7.128;2022-09-02T05:25:31;16.70;1.00
12152;DHT22;6139;51.274;7.128;2022-09-02T05:26:34;16.70;1.00
12152;DHT22;6139;51.274;7.128;2022-09-02T05:27:37;16.70;99.90
12152;DHT22;6139;51.274;7.128;2022-09-02T05:28:40;16.70;99.90
12152;DHT22;6139;51.274;7.128;2022-09-02T05:29:43;16.70;99.90
12152;DHT22;6139;51.274;7.128;2022-09-02T05:30:45;16.70;99.90
12152;DHT22;6139;51.274;7.128;2022-09-02T05:31:47;16.70;99.90
12152;DHT22;6139;51.274;7.128;2022-09-02T05:32:49;16.70;99.90
12152;DHT22;6139;51.274;7.128;2022-09-02T05:33:52;16.70;99.90
12152;DHT22;6139;51.274;7.128;2022-09-02T05:34:56;16.70;99.90
12152;DHT22;6139;51.274;7.128;2022-09-02T05:35:57;16.70;99.90
12152;DHT22;6139;51.274;7.128;2022-09-02T05:36:59;16.70;99.90
12152;DHT22;6139;51.274;7.128;2022-09-02T05:38:03;16.80;1.00
12152;DHT22;6139;51.274;7.128;2022-09-02T05:39:05;16.80;99.90
12152;DHT22;6139;51.274;7.128;2022-09-02T05:40:09;16.90;99.90
12152;DHT22;6139;51.274;7.128;2022-09-02T05:41:14;16.90;1.00
12152;DHT22;6139;51.274;7.128;2022-09-02T05:42:18;16.90;99.90
12152;DHT22;6139;51.274;7.128;2022-09-02T05:43:22;16.90;99.90
12152;DHT22;6139;51.274;7.128;2022-09-02T05:44:23;17.00;1.00
12152;DHT22;6139;51.274;7.128;2022-09-02T05:45:26;17.00;99.90
12152;DHT22;6139;51.274;7.128;2022-09-02T05:46:28;17.00;1.00
12152;DHT22;6139;51.274;7.128;2022-09-02T05:47:32;17.00;1.00
12152;DHT22;6139;51.274;7.128;2022-09-02T05:48:35;17.10;1.00
12152;DHT22;6139;51.274;7.128;2022-09-02T05:49:56;17.10;1.00
12152;DHT22;6139;51.274;7.128;2022-09-02T05:51:03;17.10;1.00
12152;DHT22;6139;51.274;7.128;2022-09-02T05:52:04;17.10;1.00
12152;DHT22;6139;51.274;7.128;2022-09-02T05:53:16;17.20;1.00
12152;DHT22;6139;51.274;7.128;2022-09-02T05:54:19;17.20;1.00
12152;DHT22;6139;51.274;7.128;2022-09-02T05:55:22;17.20;1.00
12152;DHT22;6139;51.274;7.128;2022-09-02T05:56:24;17.30;1.00
12152;DHT22;6139;51.274;7.128;2022-09-02T05:57:27;17.30;1.00
12152;DHT22;6139;51.274;7.128;2022-09-02T05:58:37;17.30;1.00
12152;DHT22;6139;51.274;7.128;2022-09-02T05:59:39;17.30;1.00
12152;DHT22;6139;51.274;7.128;2022-09-02T06:00:44;17.30;1.00
12152;DHT22;6139;51.274;7.128;2022-09-02T06:01:46;17.30;1.00
12152;DHT22;6139;51.274;7.128;2022-09-02T06:02:48;17.40;99.90
12152;DHT22;6139;51.274;7.128;2022-09-02T06:03:58;17.40;99.90
12152;DHT22;6139;51.274;7.128;2022-09-02T06:05:04;17.40;1.00
12152;DHT22;6139;51.274;7.128;2022-09-02T06:06:05;17.50;1.00
12152;DHT22;6139;51.274;7.128;2022-09-02T06:07:10;17.50;99.90
12152;DHT22;6139;51.274;7.128;2022-09-02T06:08:12;17.60;99.90
12152;DHT22;6139;51.274;7.128;2022-09-02T06:09:17;17.60;1.00
12152;DHT22;6139;51.274;7.128;2022-09-02T06:10:20;17.60;99.90
12152;DHT22;6139;51.274;7.128;2022-09-02T06:11:23;17.70;99.90
12152;DHT22;6139;51.274;7.128;2022-09-02T06:12:25;17.70;99.90
12152;DHT22;6139;51.274;7.128;2022-09-02T06:13:39;17.80;99.90
12152;DHT22;6139;51.274;7.128;2022-09-02T06:14:41;17.80;89.00
12152;DHT22;6139;51.274;7.128;2022-09-02T06:15:44;17.80;1.00
12152;DHT22;6139;51.274;7.128;2022-09-02T06:16:47;17.80;1.00
12152;DHT22;6139;51.274;7.128;2022-09-02T06:17:56;17.80;87.60
12152;DHT22;6139;51.274;7.128;2022-09-02T06:19:00;17.80;1.00
12152;DHT22;6139;51.274;7.128;2022-09-02T06:20:05;17.80;99.90
12152;DHT22;6139;51.274;7.128;2022-09-02T06:21:06;17.90;55.80
12152;DHT22;6139;51.274;7.128;2022-09-02T06:22:14;17.90;1.00
12152;DHT22;6139;51.274;7.128;2022-09-02T06:23:17;17.90;1.00
12152;DHT22;6139;51.274;7.128;2022-09-02T06:24:19;17.90;1.00
12152;DHT22;6139;51.274;7.128;2022-09-02T06:25:24;17.90;1.00
12152;DHT22;6139;51.274;7.128;2022-09-02T06:26:26;18.00;1.00
12152;DHT22;6139;51.274;7.128;2022-09-02T06:27:30;17.90;1.00
12152;DHT22;6139;51.274;7.128;2022-09-02T06:28:31;17.90;9.50
12152;DHT22;6139;51.274;7.128;2022-09-02T06:29:33;18.00;1.00
12152;DHT22;6139;51.274;7.128;2022-09-02T06:30:37;18.00;1.00
12152;DHT22;6139;51.274;7.128;2022-09-02T06:31:40;18.00;99.90
12152;DHT22;6139;51.274;7.128;2022-09-02T06:32:43;18.00;99.90
12152;DHT22;6139;51.274;7.128;2022-09-02T06:33:46;18.00;1.00
12152;DHT22;6139;51.274;7.128;2022-09-02T06:34:51;18.00;1.00
12152;DHT22;6139;51.274;7.128;2022-09-02T06:35:54;18.00;1.00
12152;DHT22;6139;51.274;7.128;2022-09-02T06:36:56;18.10;1.00
12152;DHT22;6139;51.274;7.128;2022-09-02T06:37:58;18.10;1.00
12152;DHT22;6139;51.274;7.128;2022-09-02T06:39:01;18.10;1.00
12152;DHT22;6139;51.274;7.128;2022-09-02T06:40:06;18.10;1.00
12152;DHT22;6139;51.274;7.128;2022-09-02T06:41:10;18.10;1.00
12152;DHT22;6139;51.274;7.128;2022-09-02T06:42:15;18.20;1.00
12152;DHT22;6139;51.274;7.128;2022-09-02T06:43:43;18.30;1.00
12152;DHT22;6139;51.274;7.128;2022-09-02T06:44:50;18.20;1.00
12152;DHT22;6139;51.274;7.128;2022-09-02T06:45:52;18.30;99.90
12152;DHT22;6139;51.274;7.128;2022-09-02T06:46:56;18.30;1.00
12152;DHT22;6139;51.274;7.128;2022-09-02T06:48:00;18.40;1.00
12152;DHT22;6139;51.274;7.128;2022-09-02T06:49:02;18.40;1.00
12152;DHT22;6139;51.274;7.128;2022-09-02T06:50:06;18.40;1.00
12152;DHT22;6139;51.274;7.128;2022-09-02T06:51:15;18.50;1.00